createdAt,value
2017-08-26T00:00:42.211Z,92.60
2017-08-26T00:03:10.528Z,92.50
2017-08-26T00:05:38.863Z,92.50
2017-08-26T00:08:07.182Z,92.60
2017-08-26T00:10:35.529Z,92.60
2017-08-26T00:13:03.846Z,92.60
2017-08-26T00:15:32.199Z,92.70
2017-08-26T00:18:00.517Z,92.60
2017-08-26T00:20:28.865Z,92.50
2017-08-26T00:22:57.376Z,92.50
2017-08-26T00:25:25.696Z,92.50
2017-08-26T00:27:54.029Z,92.50
2017-08-26T00:30:22.344Z,92.60
2017-08-26T00:32:50.683Z,92.60
2017-08-26T00:35:18.999Z,92.60
2017-08-26T00:37:47.359Z,92.60
2017-08-26T00:40:15.687Z,92.70
2017-08-26T00:42:43.999Z,92.70
2017-08-26T00:45:12.357Z,92.80
2017-08-26T00:47:40.675Z,93.00
2017-08-26T00:50:09.007Z,93.00
2017-08-26T00:52:37.326Z,93.00
2017-08-26T00:55:05.663Z,93.00
2017-08-26T00:57:33.984Z,93.00
2017-08-26T01:00:02.330Z,93.10
2017-08-26T01:02:30.643Z,93.20
2017-08-26T01:04:58.956Z,93.40
2017-08-26T01:07:33.000Z,93.20
2017-08-26T01:10:02.208Z,93.10
2017-08-26T01:12:30.551Z,93.10
2017-08-26T01:14:58.859Z,93.10
2017-08-26T01:17:27.196Z,93.10
2017-08-26T01:19:55.514Z,93.10
2017-08-26T01:22:23.851Z,93.10
2017-08-26T01:24:52.167Z,93.10
2017-08-26T01:27:20.483Z,93.10
2017-08-26T01:29:48.827Z,93.10
2017-08-26T01:32:17.139Z,93.20
2017-08-26T01:34:45.478Z,93.20
2017-08-26T01:37:13.787Z,93.20
2017-08-26T01:39:42.130Z,93.30
2017-08-26T01:42:10.442Z,93.30
2017-08-26T01:44:38.789Z,93.20
2017-08-26T01:47:07.108Z,93.20
2017-08-26T01:49:35.424Z,93.40
2017-08-26T01:52:03.767Z,93.40
2017-08-26T01:54:32.089Z,93.30
2017-08-26T01:57:00.426Z,93.40
2017-08-26T01:59:28.743Z,93.30
2017-08-26T02:01:57.087Z,93.30
2017-08-26T02:04:25.404Z,93.30
2017-08-26T02:06:53.719Z,93.40
2017-08-26T02:09:22.052Z,93.40
2017-08-26T02:11:50.367Z,93.30
2017-08-26T02:14:18.715Z,93.30
2017-08-26T02:16:47.028Z,93.30
2017-08-26T02:19:15.365Z,93.40
2017-08-26T02:21:43.684Z,93.30
2017-08-26T02:24:12.035Z,93.30
2017-08-26T02:26:40.347Z,93.30
2017-08-26T02:29:08.669Z,93.30
2017-08-26T02:31:37.000Z,93.20
2017-08-26T02:34:05.323Z,93.20
2017-08-26T02:36:33.655Z,93.30
2017-08-26T02:39:01.968Z,93.40
2017-08-26T02:41:30.311Z,93.40
2017-08-26T02:43:58.647Z,93.50
2017-08-26T02:46:27.007Z,93.70
2017-08-26T02:48:55.319Z,93.70
2017-08-26T02:51:23.633Z,93.70
2017-08-26T02:53:52.024Z,93.70
2017-08-26T02:56:20.339Z,93.70
2017-08-26T02:58:48.676Z,93.70
2017-08-26T03:01:16.991Z,93.60
2017-08-26T03:03:45.331Z,93.60
2017-08-26T03:06:13.640Z,93.50
2017-08-26T03:08:42.004Z,93.50
2017-08-26T03:11:10.318Z,93.40
2017-08-26T03:13:38.635Z,93.30
2017-08-26T03:16:06.959Z,93.30
2017-08-26T03:18:35.283Z,93.30
2017-08-26T03:21:03.616Z,93.30
2017-08-26T03:23:31.932Z,93.30
2017-08-26T03:26:00.275Z,93.30
2017-08-26T03:28:28.588Z,93.30
2017-08-26T03:30:56.941Z,93.20
2017-08-26T03:33:25.252Z,93.30
2017-08-26T03:35:53.592Z,93.20
2017-08-26T03:38:21.923Z,93.20
2017-08-26T03:40:50.240Z,93.20
2017-08-26T03:43:18.569Z,93.50
2017-08-26T03:45:46.108Z,93.10
2017-08-26T03:48:14.450Z,93.10
2017-08-26T03:50:42.767Z,93.20
2017-08-26T03:53:11.116Z,93.30
2017-08-26T03:55:39.429Z,93.30
2017-08-26T03:58:07.739Z,93.30
2017-08-26T04:00:36.064Z,93.30
2017-08-26T04:03:04.375Z,93.30
2017-08-26T04:05:32.712Z,93.20
2017-08-26T04:08:01.027Z,93.30
2017-08-26T04:10:29.354Z,93.40
2017-08-26T04:12:57.673Z,93.30
2017-08-26T04:15:26.003Z,93.40
2017-08-26T04:17:54.318Z,93.30
2017-08-26T04:20:22.632Z,93.30
2017-08-26T04:22:50.987Z,93.50
2017-08-26T04:25:19.303Z,93.50
2017-08-26T04:27:47.639Z,93.40
2017-08-26T04:30:15.996Z,93.40
2017-08-26T04:32:44.324Z,93.30
2017-08-26T04:35:12.663Z,93.30
2017-08-26T04:37:41.019Z,93.30
2017-08-26T04:40:09.412Z,93.40
2017-08-26T04:42:37.728Z,93.50
2017-08-26T04:45:05.300Z,93.50
2017-08-26T04:47:33.613Z,93.40
2017-08-26T04:50:01.948Z,93.50
2017-08-26T04:52:30.279Z,93.60
2017-08-26T04:54:58.615Z,93.60
2017-08-26T04:57:26.931Z,93.60
2017-08-26T04:59:55.263Z,93.50
2017-08-26T05:02:23.584Z,93.60
2017-08-26T05:04:51.899Z,93.50
2017-08-26T05:07:20.241Z,93.40
2017-08-26T05:09:48.556Z,93.40
2017-08-26T05:12:16.891Z,93.40
2017-08-26T05:14:45.202Z,93.30
2017-08-26T05:17:13.535Z,93.30
2017-08-26T05:19:41.851Z,93.20
2017-08-26T05:22:10.163Z,93.20
2017-08-26T05:24:38.491Z,93.10
2017-08-26T05:27:06.815Z,93.40
2017-08-26T05:29:35.152Z,93.00
2017-08-26T05:32:03.458Z,92.90
2017-08-26T05:34:31.796Z,92.90
2017-08-26T05:37:00.111Z,92.80
2017-08-26T05:39:28.459Z,92.70
2017-08-26T05:41:56.769Z,92.60
2017-08-26T05:44:25.091Z,92.50
2017-08-26T05:46:53.440Z,92.50
2017-08-26T05:49:21.761Z,92.40
2017-08-26T05:51:50.094Z,92.40
2017-08-26T05:54:18.411Z,92.30
2017-08-26T05:56:46.735Z,92.20
2017-08-26T05:59:15.055Z,92.10
2017-08-26T06:01:43.404Z,92.00
2017-08-26T06:04:11.724Z,91.80
2017-08-26T06:06:40.052Z,91.80
2017-08-26T06:09:08.396Z,91.80
2017-08-26T06:11:36.708Z,91.60
2017-08-26T06:14:05.061Z,91.50
2017-08-26T06:16:33.380Z,91.40
2017-08-26T06:19:01.732Z,91.40
2017-08-26T06:21:30.063Z,91.30
2017-08-26T06:23:58.412Z,91.20
2017-08-26T06:26:26.727Z,91.10
2017-08-26T06:28:55.044Z,91.10
2017-08-26T06:31:23.405Z,91.00
2017-08-26T06:33:51.719Z,90.80
2017-08-26T06:36:20.060Z,90.80
2017-08-26T06:38:48.384Z,90.60
2017-08-26T06:41:16.751Z,90.40
2017-08-26T06:43:45.068Z,90.30
2017-08-26T06:46:13.416Z,90.20
2017-08-26T06:48:41.733Z,90.00
2017-08-26T06:51:10.051Z,89.80
2017-08-26T06:53:38.396Z,89.70
2017-08-26T06:56:06.713Z,89.20
2017-08-26T06:58:35.044Z,88.80
2017-08-26T07:01:03.363Z,88.50
2017-08-26T07:03:31.697Z,88.20
2017-08-26T07:06:00.012Z,87.80
2017-08-26T07:08:28.355Z,87.50
2017-08-26T07:10:55.908Z,87.30
2017-08-26T07:13:24.212Z,87.00
2017-08-26T07:15:52.548Z,87.00
2017-08-26T07:18:20.855Z,87.10
2017-08-26T07:20:48.426Z,87.10
2017-08-26T07:23:16.742Z,87.30
2017-08-26T07:25:45.080Z,87.30
2017-08-26T07:28:13.387Z,86.90
2017-08-26T07:30:41.739Z,87.70
2017-08-26T07:33:09.292Z,86.70
2017-08-26T07:35:37.611Z,86.10
2017-08-26T07:38:05.943Z,85.60
2017-08-26T07:40:34.256Z,85.10
2017-08-26T07:43:02.589Z,85.00
2017-08-26T07:45:30.902Z,84.50
2017-08-26T07:47:59.236Z,83.80
2017-08-26T07:50:27.554Z,83.40
2017-08-26T07:52:55.897Z,83.60
2017-08-26T07:55:24.208Z,83.40
2017-08-26T07:57:52.527Z,83.20
2017-08-26T08:00:20.858Z,83.30
2017-08-26T08:02:49.231Z,82.60
2017-08-26T08:05:17.568Z,82.50
2017-08-26T08:07:45.880Z,82.40
2017-08-26T08:10:14.217Z,82.10
2017-08-26T08:12:42.529Z,81.70
2017-08-26T08:15:10.868Z,81.20
2017-08-26T08:17:39.171Z,80.90
2017-08-26T08:20:07.489Z,80.80
2017-08-26T08:22:35.824Z,80.50
2017-08-26T08:25:04.144Z,79.60
2017-08-26T08:27:32.479Z,78.00
2017-08-26T08:30:00.788Z,77.60
2017-08-26T08:32:29.285Z,77.30
2017-08-26T08:34:57.753Z,76.90
2017-08-26T08:37:26.087Z,76.50
2017-08-26T08:39:54.412Z,76.10
2017-08-26T08:42:22.756Z,75.40
2017-08-26T08:44:51.063Z,75.50
2017-08-26T08:47:19.373Z,75.70
2017-08-26T08:49:47.699Z,75.30
2017-08-26T08:52:16.026Z,75.10
2017-08-26T08:54:44.363Z,74.50
2017-08-26T08:57:12.687Z,74.00
2017-08-26T08:59:41.032Z,74.00
2017-08-26T09:02:09.347Z,73.80
2017-08-26T09:04:37.687Z,74.40
2017-08-26T09:07:06.004Z,73.40
2017-08-26T09:09:34.366Z,72.70
2017-08-26T09:12:02.687Z,71.60
2017-08-26T09:14:31.009Z,70.10
2017-08-26T09:16:59.353Z,69.90
2017-08-26T09:19:27.683Z,70.40
2017-08-26T09:21:55.251Z,70.40
2017-08-26T09:24:23.565Z,68.90
2017-08-26T09:26:51.900Z,67.90
2017-08-26T09:29:19.457Z,68.80
2017-08-26T09:31:47.806Z,69.40
2017-08-26T09:34:16.126Z,69.10
2017-08-26T09:36:44.467Z,68.90
2017-08-26T09:39:12.784Z,68.40
2017-08-26T09:41:41.142Z,68.00
2017-08-26T09:44:09.458Z,66.80
2017-08-26T09:46:37.796Z,66.70
2017-08-26T09:49:06.126Z,66.90
2017-08-26T09:51:34.451Z,67.70
2017-08-26T09:54:02.801Z,66.80
2017-08-26T09:56:31.111Z,66.60
2017-08-26T09:58:59.452Z,66.10
2017-08-26T10:01:27.768Z,66.40
2017-08-26T10:03:56.132Z,65.40
2017-08-26T10:06:24.469Z,65.60
2017-08-26T10:08:52.832Z,66.30
2017-08-26T10:11:21.195Z,66.80
2017-08-26T10:13:49.533Z,66.70
2017-08-26T10:16:17.947Z,66.50
2017-08-26T10:18:46.261Z,65.10
2017-08-26T10:21:14.603Z,65.00
2017-08-26T10:23:42.910Z,64.50
2017-08-26T10:26:11.363Z,63.20
2017-08-26T10:28:39.680Z,62.70
2017-08-26T10:31:08.025Z,63.20
2017-08-26T10:33:36.343Z,61.40
2017-08-26T10:36:04.675Z,61.60
2017-08-26T10:38:32.992Z,62.30
2017-08-26T10:41:01.588Z,62.50
2017-08-26T10:43:29.910Z,61.00
2017-08-26T10:45:58.230Z,60.90
2017-08-26T10:48:26.573Z,59.50
2017-08-26T10:50:54.887Z,58.90
2017-08-26T10:53:23.317Z,58.40
2017-08-26T10:55:51.638Z,58.30
2017-08-26T10:58:19.979Z,58.20
2017-08-26T11:00:48.296Z,58.30
2017-08-26T11:03:16.636Z,57.50
2017-08-26T11:05:44.951Z,55.90
2017-08-26T11:08:13.387Z,55.10
2017-08-26T11:10:41.703Z,54.70
2017-08-26T11:13:10.052Z,54.20
2017-08-26T11:15:38.404Z,53.30
2017-08-26T11:18:06.784Z,52.40
2017-08-26T11:20:35.123Z,51.70
2017-08-26T11:23:03.448Z,51.90
2017-08-26T11:25:31.783Z,52.60
2017-08-26T11:28:00.097Z,52.60
2017-08-26T11:30:28.434Z,51.60
2017-08-26T11:32:56.753Z,52.00
2017-08-26T11:35:25.092Z,52.60
2017-08-26T11:37:53.490Z,52.60
2017-08-26T11:40:21.835Z,53.10
2017-08-26T11:42:50.147Z,53.10
2017-08-26T11:45:18.463Z,53.50
2017-08-26T11:47:46.799Z,53.30
2017-08-26T11:50:15.116Z,53.00
2017-08-26T11:52:43.448Z,53.80
2017-08-26T11:55:11.758Z,54.80
2017-08-26T11:57:40.095Z,53.90
2017-08-26T12:00:08.418Z,52.60
2017-08-26T12:02:36.750Z,53.30
2017-08-26T12:05:05.074Z,53.20
2017-08-26T12:07:33.424Z,53.60
2017-08-26T12:10:01.736Z,53.20
2017-08-26T12:12:30.084Z,52.50
2017-08-26T12:14:58.408Z,52.60
2017-08-26T12:17:26.725Z,53.00
2017-08-26T12:19:55.073Z,52.70
2017-08-26T12:22:23.392Z,51.80
2017-08-26T12:24:51.735Z,50.80
2017-08-26T12:27:20.049Z,50.00
2017-08-26T12:29:48.388Z,49.40
2017-08-26T12:32:16.700Z,49.30
2017-08-26T12:34:45.047Z,50.40
2017-08-26T12:37:13.431Z,50.60
2017-08-26T12:39:41.771Z,49.70
2017-08-26T12:42:09.320Z,49.70
2017-08-26T12:44:37.660Z,49.20
2017-08-26T12:47:05.980Z,48.90
2017-08-26T12:49:34.317Z,48.80
2017-08-26T12:52:02.630Z,48.20
2017-08-26T12:54:30.980Z,48.30
2017-08-26T12:56:59.301Z,47.50
2017-08-26T12:59:27.629Z,47.30
2017-08-26T13:01:55.968Z,47.00
2017-08-26T13:04:24.284Z,47.00
2017-08-26T13:06:52.623Z,46.30
2017-08-26T13:09:20.943Z,45.50
2017-08-26T13:11:49.279Z,47.00
2017-08-26T13:14:17.598Z,47.40
2017-08-26T13:16:45.947Z,46.60
2017-08-26T13:19:14.274Z,47.10
2017-08-26T13:21:42.620Z,47.20
2017-08-26T13:24:10.949Z,45.70
2017-08-26T13:26:39.275Z,45.30
2017-08-26T13:29:07.619Z,45.10
2017-08-26T13:31:35.936Z,45.00
2017-08-26T13:34:04.271Z,45.00
2017-08-26T13:36:32.583Z,44.60
2017-08-26T13:39:00.933Z,45.20
2017-08-26T13:41:29.252Z,44.10
2017-08-26T13:43:57.604Z,45.10
2017-08-26T13:46:25.927Z,45.50
2017-08-26T13:48:54.265Z,45.90
2017-08-26T13:51:22.589Z,45.30
2017-08-26T13:53:50.941Z,45.10
2017-08-26T13:56:19.265Z,45.80
2017-08-26T13:58:47.586Z,45.10
2017-08-26T14:01:15.927Z,45.20
2017-08-26T14:03:44.245Z,45.90
2017-08-26T14:06:12.592Z,45.90
2017-08-26T14:08:40.908Z,44.40
2017-08-26T14:11:09.239Z,44.80
2017-08-26T14:13:37.555Z,44.30
2017-08-26T14:16:05.896Z,44.00
2017-08-26T14:18:34.217Z,45.60
2017-08-26T14:21:02.560Z,46.50
2017-08-26T14:23:30.888Z,47.00
2017-08-26T14:25:59.235Z,46.00
2017-08-26T14:28:27.551Z,45.10
2017-08-26T14:30:55.870Z,45.10
2017-08-26T14:33:24.202Z,45.10
2017-08-26T14:35:52.522Z,45.10
2017-08-26T14:38:20.869Z,45.10
2017-08-26T14:40:49.200Z,45.70
2017-08-26T14:43:17.537Z,46.30
2017-08-26T14:45:45.855Z,45.70
2017-08-26T14:48:14.196Z,45.80
2017-08-26T14:50:42.519Z,46.30
2017-08-26T14:53:10.863Z,47.00
2017-08-26T14:55:39.175Z,47.40
2017-08-26T14:58:07.511Z,46.60
2017-08-26T15:00:35.822Z,46.80
2017-08-26T15:03:04.179Z,47.20
2017-08-26T15:05:32.501Z,47.20
2017-08-26T15:08:00.823Z,47.90
2017-08-26T15:10:29.165Z,47.90
2017-08-26T15:12:57.485Z,48.00
2017-08-26T15:15:25.864Z,48.30
2017-08-26T15:17:54.212Z,48.90
2017-08-26T15:20:21.816Z,48.90
2017-08-26T15:22:50.151Z,50.40
2017-08-26T15:25:18.495Z,51.00
2017-08-26T15:27:46.819Z,51.60
2017-08-26T15:30:15.184Z,52.10
2017-08-26T15:32:43.495Z,52.30
2017-08-26T15:35:11.812Z,52.60
2017-08-26T15:37:40.151Z,53.00
2017-08-26T15:40:08.471Z,53.10
2017-08-26T15:42:36.809Z,53.60
2017-08-26T15:45:05.124Z,54.40
2017-08-26T15:47:33.468Z,54.90
2017-08-26T15:50:01.787Z,55.40
2017-08-26T15:52:30.125Z,55.60
2017-08-26T15:54:58.446Z,56.00
2017-08-26T15:57:26.783Z,55.40
2017-08-26T15:59:55.099Z,54.70
2017-08-26T16:02:23.452Z,54.00
2017-08-26T16:04:51.771Z,53.80
2017-08-26T16:07:20.091Z,54.00
2017-08-26T16:09:48.427Z,54.50
2017-08-26T16:12:16.748Z,54.60
2017-08-26T16:14:45.097Z,54.50
2017-08-26T16:17:13.412Z,54.80
2017-08-26T16:19:41.755Z,55.00
2017-08-26T16:22:10.072Z,55.40
2017-08-26T16:24:38.407Z,55.20
2017-08-26T16:27:06.728Z,54.80
2017-08-26T16:29:35.073Z,54.60
2017-08-26T16:32:03.394Z,55.00
2017-08-26T16:34:31.751Z,54.60
2017-08-26T16:37:00.064Z,55.10
2017-08-26T16:39:28.375Z,55.70
2017-08-26T16:41:56.707Z,56.70
2017-08-26T16:44:25.016Z,57.40
2017-08-26T16:46:53.349Z,58.20
2017-08-26T16:49:21.673Z,58.60
2017-08-26T16:51:50.015Z,59.20
2017-08-26T16:54:18.335Z,59.60
2017-08-26T16:56:46.671Z,60.10
2017-08-26T16:59:15.011Z,59.70
2017-08-26T17:01:43.351Z,59.30
2017-08-26T17:04:11.674Z,59.50
2017-08-26T17:06:40.005Z,59.60
2017-08-26T17:09:07.585Z,59.50
2017-08-26T17:11:35.904Z,58.90
2017-08-26T17:14:04.248Z,58.50
2017-08-26T17:16:32.559Z,58.20
2017-08-26T17:19:00.898Z,58.30
2017-08-26T17:21:28.454Z,58.30
2017-08-26T17:23:56.796Z,59.40
2017-08-26T17:26:25.116Z,59.80
2017-08-26T17:28:53.455Z,60.40
2017-08-26T17:31:21.770Z,61.60
2017-08-26T17:33:50.123Z,62.30
2017-08-26T17:36:18.435Z,63.00
2017-08-26T17:38:46.748Z,63.50
2017-08-26T17:41:15.092Z,63.90
2017-08-26T17:43:43.408Z,64.30
2017-08-26T17:46:11.745Z,64.50
2017-08-26T17:48:40.068Z,64.50
2017-08-26T17:51:08.411Z,64.90
2017-08-26T17:53:36.737Z,65.60
2017-08-26T17:56:05.077Z,66.10
2017-08-26T17:58:33.395Z,66.90
2017-08-26T18:01:01.743Z,67.80
2017-08-26T18:03:30.059Z,68.70
2017-08-26T18:05:57.631Z,68.70
2017-08-26T18:08:25.941Z,70.00
2017-08-26T18:10:54.304Z,70.40
2017-08-26T18:13:22.621Z,71.10
2017-08-26T18:15:50.934Z,72.40
2017-08-26T18:18:19.272Z,73.60
2017-08-26T18:20:47.722Z,73.10
2017-08-26T18:23:16.328Z,73.40
2017-08-26T18:25:44.784Z,73.60
2017-08-26T18:28:13.464Z,74.10
2017-08-26T18:30:42.079Z,74.60
2017-08-26T18:33:10.487Z,75.00
2017-08-26T18:35:39.058Z,75.40
2017-08-26T18:38:07.663Z,75.50
2017-08-26T18:40:36.151Z,75.60
2017-08-26T18:43:04.739Z,76.10
2017-08-26T18:45:33.348Z,76.30
2017-08-26T18:48:02.036Z,76.60
2017-08-26T18:50:30.729Z,77.00
2017-08-26T18:52:59.111Z,77.40
2017-08-26T18:55:27.035Z,77.20
2017-08-26T18:57:55.452Z,77.70
2017-08-26T19:00:24.106Z,77.80
2017-08-26T19:02:52.423Z,78.20
2017-08-26T19:05:21.064Z,78.40
2017-08-26T19:07:49.657Z,78.60
2017-08-26T19:10:18.411Z,78.90
2017-08-26T19:12:47.111Z,79.30
2017-08-26T19:15:15.747Z,79.40
2017-08-26T19:17:44.646Z,79.70
2017-08-26T19:20:13.391Z,80.00
2017-08-26T19:22:42.667Z,80.20
2017-08-26T19:25:11.302Z,80.70
2017-08-26T19:27:41.233Z,81.10
2017-08-26T19:30:09.927Z,81.70
2017-08-26T19:32:38.435Z,82.10
2017-08-26T19:35:07.132Z,82.10
2017-08-26T19:37:35.864Z,82.60
2017-08-26T19:40:04.479Z,82.80
2017-08-26T19:42:32.922Z,82.90
2017-08-26T19:45:01.241Z,82.90
2017-08-26T19:47:29.690Z,83.20
2017-08-26T19:49:58.479Z,83.60
2017-08-26T19:52:26.949Z,83.90
2017-08-26T19:54:55.566Z,84.30
2017-08-26T19:57:24.144Z,84.40
2017-08-26T19:59:52.643Z,84.50
2017-08-26T20:02:21.294Z,84.80
2017-08-26T20:04:49.972Z,85.00
2017-08-26T20:07:18.445Z,84.80
2017-08-26T20:09:47.139Z,84.90
2017-08-26T20:12:15.867Z,85.20
2017-08-26T20:14:44.591Z,85.20
2017-08-26T20:17:13.222Z,85.60
2017-08-26T20:19:41.955Z,86.20
2017-08-26T20:22:10.551Z,86.60
2017-08-26T20:24:39.196Z,86.90
2017-08-26T20:27:07.566Z,87.30
2017-08-26T20:29:35.883Z,87.30
2017-08-26T20:32:04.223Z,87.30
2017-08-26T20:34:32.540Z,87.50
2017-08-26T20:37:00.876Z,87.50
2017-08-26T20:39:29.193Z,87.70
2017-08-26T20:41:57.533Z,87.60
2017-08-26T20:44:25.852Z,87.70
2017-08-26T20:46:54.198Z,88.20
2017-08-26T20:49:22.530Z,88.20
2017-08-26T20:51:50.848Z,88.40
2017-08-26T20:54:19.187Z,88.60
2017-08-26T20:56:47.515Z,88.90
2017-08-26T20:59:15.870Z,89.10
2017-08-26T21:01:43.428Z,89.10
2017-08-26T21:04:11.779Z,89.00
2017-08-26T21:06:40.099Z,88.90
2017-08-26T21:09:08.768Z,89.20
2017-08-26T21:11:37.103Z,88.90
2017-08-26T21:14:05.458Z,88.90
2017-08-26T21:16:33.776Z,88.80
2017-08-26T21:19:02.097Z,88.90
2017-08-26T21:21:30.431Z,89.30
2017-08-26T21:23:58.739Z,89.10
2017-08-26T21:26:27.080Z,89.30
2017-08-26T21:28:55.398Z,89.20
2017-08-26T21:31:23.739Z,90.00
2017-08-26T21:33:52.073Z,89.30
2017-08-26T21:36:20.426Z,89.30
2017-08-26T21:38:48.744Z,89.40
2017-08-26T21:41:17.067Z,89.60
2017-08-26T21:43:45.403Z,89.70
2017-08-26T21:46:13.718Z,89.40
2017-08-26T21:48:42.066Z,89.50
2017-08-26T21:51:10.387Z,90.30
2017-08-26T21:53:38.739Z,89.60
2017-08-26T21:56:07.053Z,89.70
2017-08-26T21:58:35.392Z,89.70
2017-08-26T22:01:03.713Z,89.90
2017-08-26T22:03:32.053Z,90.40
2017-08-26T22:06:00.396Z,89.80
2017-08-26T22:08:28.737Z,89.80
2017-08-26T22:10:57.062Z,89.70
2017-08-26T22:13:25.404Z,89.50
2017-08-26T22:15:53.715Z,89.50
2017-08-26T22:18:22.029Z,89.50
2017-08-26T22:20:50.367Z,89.30
2017-08-26T22:23:18.682Z,89.30
2017-08-26T22:25:47.018Z,89.50
2017-08-26T22:28:15.335Z,89.70
2017-08-26T22:30:43.675Z,89.70
2017-08-26T22:33:11.998Z,90.00
2017-08-26T22:35:40.336Z,90.00
2017-08-26T22:38:08.650Z,90.00
2017-08-26T22:40:36.989Z,89.90
2017-08-26T22:43:05.307Z,90.00
2017-08-26T22:45:33.629Z,90.00
2017-08-26T22:48:01.969Z,89.90
2017-08-26T22:50:30.298Z,89.80
2017-08-26T22:52:58.636Z,89.80
2017-08-26T22:55:26.946Z,89.80
2017-08-26T22:57:56.267Z,89.80
2017-08-26T23:00:24.583Z,89.70
2017-08-26T23:02:52.923Z,89.60
2017-08-26T23:05:21.238Z,89.60
2017-08-26T23:07:49.587Z,89.50
2017-08-26T23:10:17.903Z,89.50
2017-08-26T23:12:46.224Z,89.70
2017-08-26T23:15:14.558Z,89.70
2017-08-26T23:17:42.876Z,89.60
2017-08-26T23:20:11.221Z,89.60
2017-08-26T23:22:39.544Z,89.50
2017-08-26T23:25:07.888Z,89.50
2017-08-26T23:27:36.200Z,89.70
2017-08-26T23:30:04.537Z,89.70
2017-08-26T23:32:32.866Z,89.60
2017-08-26T23:35:01.224Z,89.60
2017-08-26T23:37:29.539Z,90.10
2017-08-26T23:39:57.862Z,89.40
2017-08-26T23:42:26.205Z,89.50
2017-08-26T23:44:54.527Z,90.20
2017-08-26T23:47:22.867Z,89.50
2017-08-26T23:49:51.180Z,89.50
2017-08-26T23:52:19.527Z,89.60
2017-08-26T23:54:47.847Z,89.60
2017-08-26T23:57:16.178Z,89.80
2017-08-26T23:59:44.486Z,89.70
